EGJA/ACI METAR and TAF weather

Enter ICAO airport designator
Station Type Date Time Source
EGJA METAR 2020/07/07 17:50 UTC NOAA

EGJA 071750Z 26013KT 9999 FEW015 15/12 Q1021


Station Type Date Time Source
EGJA Decoded METAR 2020/07/07 17:50 UTC NOAA

Alderney / Channel Island, United Kingdom (EGJA) 49-43N 002-12W
Jul 07, 2020 - 01:50 PM EDT / 2020.07.07 1750 UTC
Wind: from the W (260 degrees) at 15 MPH (13 KT):0
Visibility: greater than 7 mile(s):0
Sky conditions: mostly clear
Temperature: 59 F (15 C)
Dew Point: 53 F (12 C)
Relative Humidity: 82%
Pressure (altimeter): 30.15 in. Hg (1021 hPa)
ob: EGJA 071750Z 26013KT 9999 FEW015 15/12 Q1021
cycle: 18

Station Type Date Time Source
EGJA TAF UTC NOAA

Error!

Example: see airport list